createdAt,value
2017-09-05T00:00:36.246Z,16.27
2017-09-05T00:01:16.784Z,16.2
2017-09-05T00:01:57.321Z,16.21
2017-09-05T00:02:37.861Z,16.24
2017-09-05T00:03:18.398Z,16.2
2017-09-05T00:03:58.941Z,16.25
2017-09-05T00:04:39.479Z,16.24
2017-09-05T00:05:20.016Z,16.27
2017-09-05T00:06:00.555Z,16.25
2017-09-05T00:06:41.095Z,16.24
2017-09-05T00:07:21.632Z,16.27
2017-09-05T00:08:02.164Z,16.34
2017-09-05T00:08:42.709Z,16.31
2017-09-05T00:09:23.248Z,16.38
2017-09-05T00:10:03.768Z,16.3
2017-09-05T00:10:44.299Z,16.35
2017-09-05T00:11:24.843Z,16.31
2017-09-05T00:12:05.381Z,16.28
2017-09-05T00:12:45.968Z,16.33
2017-09-05T00:13:26.504Z,16.39
2017-09-05T00:14:07.041Z,16.28
2017-09-05T00:14:47.574Z,16.38
2017-09-05T00:15:28.113Z,16.25
2017-09-05T00:16:08.648Z,16.41
2017-09-05T00:16:49.175Z,16.38
2017-09-05T00:17:29.713Z,16.39
2017-09-05T00:18:10.248Z,16.38
2017-09-05T00:18:50.787Z,16.39
2017-09-05T00:19:31.333Z,16.38
2017-09-05T00:20:11.867Z,16.38
2017-09-05T00:20:52.407Z,16.39
2017-09-05T00:21:32.944Z,16.39
2017-09-05T00:22:13.479Z,16.39
2017-09-05T00:22:54.013Z,16.43
2017-09-05T00:23:34.551Z,16.45
2017-09-05T00:24:15.082Z,16.33
2017-09-05T00:24:55.619Z,16.39
2017-09-05T00:25:36.154Z,16.41
2017-09-05T00:26:16.681Z,16.39
2017-09-05T00:26:57.212Z,16.34
2017-09-05T00:27:37.753Z,16.35
2017-09-05T00:28:18.292Z,16.38
2017-09-05T00:28:58.829Z,16.38
2017-09-05T00:29:39.365Z,16.38
2017-09-05T00:30:19.900Z,16.35
2017-09-05T00:31:00.436Z,16.35
2017-09-05T00:31:40.974Z,16.35
2017-09-05T00:32:21.511Z,16.35
2017-09-05T00:33:02.079Z,16.35
2017-09-05T00:33:42.584Z,16.38
2017-09-05T00:34:23.119Z,16.39
2017-09-05T00:35:03.654Z,16.45
2017-09-05T00:35:44.188Z,16.38
2017-09-05T00:36:24.729Z,16.39
2017-09-05T00:37:05.264Z,16.43
2017-09-05T00:37:45.802Z,16.43
2017-09-05T00:38:26.345Z,16.45
2017-09-05T00:39:06.883Z,16.42
2017-09-05T00:39:47.422Z,16.43
2017-09-05T00:40:28.017Z,16.48
2017-09-05T00:41:08.558Z,16.48
2017-09-05T00:41:49.096Z,16.46
2017-09-05T00:42:29.633Z,16.43
2017-09-05T00:43:10.177Z,16.41
2017-09-05T00:43:50.715Z,16.48
2017-09-05T00:44:31.249Z,16.48
2017-09-05T00:45:11.782Z,16.43
2017-09-05T00:45:52.317Z,16.5
2017-09-05T00:46:32.850Z,16.43
2017-09-05T00:47:13.398Z,16.46
2017-09-05T00:47:53.939Z,16.46
2017-09-05T00:48:34.482Z,16.42
2017-09-05T00:49:15.017Z,16.45
2017-09-05T00:49:55.549Z,16.39
2017-09-05T00:50:36.089Z,16.45
2017-09-05T00:51:16.617Z,16.48
2017-09-05T00:51:57.158Z,16.49
2017-09-05T00:52:37.685Z,16.49
2017-09-05T00:53:18.211Z,16.43
2017-09-05T00:53:58.745Z,16.45
2017-09-05T00:54:39.284Z,16.43
2017-09-05T00:55:19.817Z,16.45
2017-09-05T00:56:00.349Z,16.46
2017-09-05T00:56:40.881Z,16.45
2017-09-05T00:57:21.414Z,16.46
2017-09-05T00:58:01.977Z,16.45
2017-09-05T00:58:42.495Z,16.39
2017-09-05T00:59:23.024Z,16.46
2017-09-05T01:00:03.560Z,16.43
2017-09-05T01:00:44.148Z,16.46
2017-09-05T01:01:24.684Z,16.45
2017-09-05T01:02:05.226Z,16.45
2017-09-05T01:02:45.763Z,16.43
2017-09-05T01:03:26.303Z,16.49
2017-09-05T01:04:06.840Z,16.46
2017-09-05T01:04:47.379Z,16.46
2017-09-05T01:05:27.915Z,16.48
2017-09-05T01:06:08.452Z,16.43
2017-09-05T01:06:48.982Z,16.52
2017-09-05T01:07:29.518Z,16.46
2017-09-05T01:08:10.061Z,16.46
2017-09-05T01:08:50.603Z,16.48
2017-09-05T01:09:31.140Z,16.48
2017-09-05T01:10:11.675Z,16.46
2017-09-05T01:10:52.212Z,16.57
2017-09-05T01:11:32.747Z,16.48
2017-09-05T01:12:13.286Z,16.45
2017-09-05T01:12:53.822Z,16.45
2017-09-05T01:13:34.364Z,16.43
2017-09-05T01:14:14.898Z,16.48
2017-09-05T01:14:55.431Z,16.43
2017-09-05T01:15:35.972Z,16.45
2017-09-05T01:16:16.512Z,16.45
2017-09-05T01:16:57.046Z,16.48
2017-09-05T01:17:37.593Z,16.39
2017-09-05T01:18:18.126Z,16.43
2017-09-05T01:18:58.667Z,16.43
2017-09-05T01:19:39.209Z,16.46
2017-09-05T01:20:19.748Z,16.45
2017-09-05T01:21:00.279Z,16.48
2017-09-05T01:21:40.815Z,16.48
2017-09-05T01:22:21.353Z,16.46
2017-09-05T01:23:01.892Z,16.45
2017-09-05T01:23:42.428Z,16.42
2017-09-05T01:24:22.971Z,16.41
2017-09-05T01:25:03.509Z,16.46
2017-09-05T01:25:44.046Z,16.45
2017-09-05T01:26:24.580Z,16.49
2017-09-05T01:27:05.179Z,16.45
2017-09-05T01:27:45.718Z,16.48
2017-09-05T01:28:26.241Z,16.49
2017-09-05T01:29:06.775Z,16.48
2017-09-05T01:29:47.321Z,16.53
2017-09-05T01:30:27.857Z,16.56
2017-09-05T01:31:08.401Z,16.53
2017-09-05T01:31:48.953Z,16.58
2017-09-05T01:32:29.481Z,16.52
2017-09-05T01:33:10.014Z,16.52
2017-09-05T01:33:50.545Z,16.41
2017-09-05T01:34:31.099Z,16.52
2017-09-05T01:35:11.636Z,16.52
2017-09-05T01:35:52.178Z,16.57
2017-09-05T01:36:32.713Z,16.49
2017-09-05T01:37:13.251Z,16.5
2017-09-05T01:37:53.785Z,16.56
2017-09-05T01:38:34.318Z,16.53
2017-09-05T01:39:14.852Z,16.43
2017-09-05T01:39:55.395Z,16.57
2017-09-05T01:40:35.935Z,16.5
2017-09-05T01:41:16.483Z,16.5
2017-09-05T01:41:57.014Z,16.5
2017-09-05T01:42:37.557Z,16.52
2017-09-05T01:43:18.094Z,16.48
2017-09-05T01:43:58.630Z,16.5
2017-09-05T01:44:39.174Z,16.5
2017-09-05T01:45:19.700Z,16.48
2017-09-05T01:46:00.248Z,16.52
2017-09-05T01:46:40.787Z,16.57
2017-09-05T01:47:21.315Z,16.58
2017-09-05T01:48:01.857Z,16.48
2017-09-05T01:48:42.395Z,16.49
2017-09-05T01:49:22.917Z,16.5
2017-09-05T01:50:03.477Z,16.49
2017-09-05T01:50:44.012Z,16.49
2017-09-05T01:51:24.549Z,16.45
2017-09-05T01:52:05.082Z,16.57
2017-09-05T01:52:45.614Z,16.48
2017-09-05T01:53:26.151Z,16.46
2017-09-05T01:54:06.694Z,16.49
2017-09-05T01:54:47.231Z,16.5
2017-09-05T01:55:27.762Z,16.53
2017-09-05T01:56:08.299Z,16.42
2017-09-05T01:56:48.837Z,16.56
2017-09-05T01:57:29.377Z,16.43
2017-09-05T01:58:09.912Z,16.41
2017-09-05T01:58:50.456Z,16.49
2017-09-05T01:59:30.991Z,16.5
2017-09-05T02:00:11.528Z,16.43
2017-09-05T02:00:52.088Z,16.45
2017-09-05T02:01:32.625Z,16.45
2017-09-05T02:02:13.164Z,16.48
2017-09-05T02:02:53.702Z,16.56
2017-09-05T02:03:34.244Z,16.43
2017-09-05T02:04:14.782Z,16.45
2017-09-05T02:04:55.318Z,16.43
2017-09-05T02:05:35.861Z,16.42
2017-09-05T02:06:16.403Z,16.43
2017-09-05T02:06:56.944Z,16.49
2017-09-05T02:07:37.479Z,16.45
2017-09-05T02:08:18.016Z,16.45
2017-09-05T02:08:58.568Z,16.41
2017-09-05T02:09:39.108Z,16.45
2017-09-05T02:10:19.643Z,16.43
2017-09-05T02:11:00.187Z,16.45
2017-09-05T02:11:40.716Z,16.49
2017-09-05T02:12:21.268Z,16.45
2017-09-05T02:13:01.803Z,16.49
2017-09-05T02:13:42.334Z,16.48
2017-09-05T02:14:22.867Z,16.5
2017-09-05T02:15:03.411Z,16.48
2017-09-05T02:15:43.937Z,16.46
2017-09-05T02:16:24.478Z,16.52
2017-09-05T02:17:05.020Z,16.5
2017-09-05T02:17:45.556Z,16.5
2017-09-05T02:18:26.092Z,16.46
2017-09-05T02:19:06.639Z,16.42
2017-09-05T02:19:47.176Z,16.45
2017-09-05T02:20:27.711Z,16.45
2017-09-05T02:21:08.247Z,16.45
2017-09-05T02:21:48.783Z,16.39
2017-09-05T02:22:29.319Z,16.41
2017-09-05T02:23:09.946Z,16.27
2017-09-05T02:23:50.453Z,16.3
2017-09-05T02:24:30.992Z,16.25
2017-09-05T02:25:11.532Z,16.38
2017-09-05T02:25:52.080Z,16.28
2017-09-05T02:26:32.601Z,16.21
2017-09-05T02:27:13.142Z,16.2
2017-09-05T02:27:53.690Z,16.25
2017-09-05T02:28:34.221Z,16.2
2017-09-05T02:29:14.759Z,16.09
2017-09-05T02:29:55.299Z,16.14
2017-09-05T02:30:35.841Z,16.2
2017-09-05T02:31:16.379Z,16.12
2017-09-05T02:31:56.917Z,16.11
2017-09-05T02:32:37.456Z,16.11
2017-09-05T02:33:17.995Z,16.05
2017-09-05T02:33:58.534Z,16.02
2017-09-05T02:34:39.069Z,16.05
2017-09-05T02:35:19.613Z,16.09
2017-09-05T02:36:00.148Z,16.08
2017-09-05T02:36:40.691Z,16.07
2017-09-05T02:37:21.224Z,16.07
2017-09-05T02:38:01.765Z,16.07
2017-09-05T02:38:42.303Z,16.02
2017-09-05T02:39:22.852Z,16.07
2017-09-05T02:40:03.378Z,16.07
2017-09-05T02:40:43.917Z,16.09
2017-09-05T02:41:24.452Z,16.12
2017-09-05T02:42:04.996Z,16.09
2017-09-05T02:42:45.525Z,16.08
2017-09-05T02:43:26.055Z,16.09
2017-09-05T02:44:06.614Z,16.08
2017-09-05T02:44:47.140Z,16.07
2017-09-05T02:45:27.671Z,16.05
2017-09-05T02:46:08.215Z,16.02
2017-09-05T02:46:48.748Z,16.05
2017-09-05T02:47:29.286Z,16.2
2017-09-05T02:48:09.829Z,16.17
2017-09-05T02:48:50.364Z,16.15
2017-09-05T02:49:30.901Z,16.11
2017-09-05T02:50:11.434Z,16.23
2017-09-05T02:50:51.975Z,16.23
2017-09-05T02:51:32.513Z,16.21
2017-09-05T02:52:13.053Z,16.23
2017-09-05T02:52:53.572Z,16.17
2017-09-05T02:53:34.108Z,16.17
2017-09-05T02:54:14.654Z,16.23
2017-09-05T02:54:55.201Z,16.25
2017-09-05T02:55:35.731Z,16.24
2017-09-05T02:56:16.283Z,16.21
2017-09-05T02:56:56.819Z,16.21
2017-09-05T02:57:37.360Z,16.2
2017-09-05T02:58:17.898Z,16.25
2017-09-05T02:58:58.473Z,16.27
2017-09-05T02:59:39.012Z,16.21
2017-09-05T03:00:19.554Z,16.27
2017-09-05T03:01:00.079Z,16.25
2017-09-05T03:01:40.608Z,16.25
2017-09-05T03:02:21.166Z,16.23
2017-09-05T03:03:01.693Z,16.25
2017-09-05T03:03:42.228Z,16.31
2017-09-05T03:04:22.799Z,16.25
2017-09-05T03:05:03.302Z,16.27
2017-09-05T03:05:43.841Z,16.28
2017-09-05T03:06:24.366Z,16.33
2017-09-05T03:07:04.911Z,16.28
2017-09-05T03:07:45.462Z,16.42
2017-09-05T03:08:25.991Z,16.25
2017-09-05T03:09:06.535Z,16.25
2017-09-05T03:11:20.788Z,16.43
2017-09-05T03:12:01.320Z,16.28
2017-09-05T03:12:41.918Z,16.25
2017-09-05T03:13:22.448Z,16.41
2017-09-05T03:14:02.982Z,16.21
2017-09-05T03:14:43.555Z,16.25
2017-09-05T03:15:24.062Z,16.27
2017-09-05T03:16:04.592Z,16.27
2017-09-05T03:16:45.133Z,16.41
2017-09-05T03:17:25.670Z,16.38
2017-09-05T03:18:06.210Z,16.38
2017-09-05T03:18:46.746Z,16.23
2017-09-05T03:19:27.282Z,16.3
2017-09-05T03:20:07.815Z,16.35
2017-09-05T03:20:48.345Z,16.31
2017-09-05T03:21:28.875Z,16.41
2017-09-05T03:22:09.427Z,16.3
2017-09-05T03:22:49.965Z,16.39
2017-09-05T03:23:30.503Z,16.33
2017-09-05T03:24:11.023Z,16.34
2017-09-05T03:24:51.545Z,16.43
2017-09-05T03:25:32.083Z,16.35
2017-09-05T03:26:12.607Z,16.28
2017-09-05T03:26:53.139Z,16.38
2017-09-05T03:27:33.683Z,16.31
2017-09-05T03:28:14.216Z,16.3
2017-09-05T03:28:54.738Z,16.3
2017-09-05T03:29:35.280Z,16.27
2017-09-05T03:30:15.809Z,16.27
2017-09-05T03:30:56.350Z,16.25
2017-09-05T03:31:36.890Z,16.41
2017-09-05T03:32:17.422Z,16.39
2017-09-05T03:32:57.964Z,16.25
2017-09-05T03:33:38.487Z,16.28
2017-09-05T03:34:19.040Z,16.33
2017-09-05T03:34:59.576Z,16.35
2017-09-05T03:35:40.116Z,16.25
2017-09-05T03:36:20.645Z,16.34
2017-09-05T03:37:01.173Z,16.28
2017-09-05T03:37:41.708Z,16.34
2017-09-05T03:38:22.237Z,16.3
2017-09-05T03:39:02.775Z,16.31
2017-09-05T03:39:43.328Z,16.24
2017-09-05T03:40:23.895Z,16.3
2017-09-05T03:41:04.407Z,16.24
2017-09-05T03:41:45.085Z,16.31
2017-09-05T03:42:25.623Z,16.24
2017-09-05T03:43:06.156Z,16.35
2017-09-05T03:43:46.730Z,16.33
2017-09-05T03:44:27.291Z,16.35
2017-09-05T03:45:07.831Z,16.3
2017-09-05T03:45:48.365Z,16.33
2017-09-05T03:46:28.891Z,16.31
2017-09-05T03:47:09.444Z,16.28
2017-09-05T03:47:49.978Z,16.34
2017-09-05T03:48:30.512Z,16.25
2017-09-05T03:49:11.046Z,16.34
2017-09-05T03:49:51.580Z,16.34
2017-09-05T03:50:32.142Z,16.27
2017-09-05T03:51:12.680Z,16.33
2017-09-05T03:51:53.215Z,16.33
2017-09-05T03:52:33.752Z,16.33
2017-09-05T03:53:14.279Z,16.3
2017-09-05T03:53:54.816Z,16.25
2017-09-05T03:54:35.353Z,16.28
2017-09-05T03:55:15.893Z,16.31
2017-09-05T03:55:56.408Z,16.25
2017-09-05T03:56:36.944Z,16.27
2017-09-05T03:57:18.418Z,16.33
2017-09-05T03:58:00.574Z,16.31
2017-09-05T03:58:44.222Z,16.27
2017-09-05T03:59:50.663Z,16.24
2017-09-05T04:00:46.803Z,16.28
2017-09-05T04:01:28.826Z,16.25
2017-09-05T04:02:10.938Z,16.33
2017-09-05T04:02:53.004Z,16.27
2017-09-05T04:04:03.898Z,16.24
2017-09-05T04:05:05.747Z,16.33
2017-09-05T04:06:11.579Z,16.3
2017-09-05T04:07:14.049Z,16.3
2017-09-05T04:08:26.024Z,16.31
2017-09-05T04:09:43.409Z,16.33
2017-09-05T04:10:43.662Z,16.3
2017-09-05T04:11:26.085Z,16.33
2017-09-05T04:12:08.563Z,16.28
2017-09-05T04:12:51.361Z,16.27
2017-09-05T04:13:34.042Z,16.38
2017-09-05T04:14:16.810Z,16.38
2017-09-05T04:14:58.869Z,16.38
2017-09-05T04:16:53.822Z,16.31
2017-09-05T04:17:36.356Z,16.33
2017-09-05T04:18:18.745Z,16.39
2017-09-05T04:19:31.789Z,16.27
2017-09-05T04:20:32.425Z,16.31
2017-09-05T04:21:14.986Z,16.31
2017-09-05T04:21:57.343Z,16.31
2017-09-05T04:22:39.957Z,16.35
2017-09-05T04:23:21.788Z,16.31
2017-09-05T04:24:04.757Z,16.33
2017-09-05T04:24:48.015Z,16.31
2017-09-05T04:25:29.899Z,16.38
2017-09-05T04:26:12.866Z,16.38
2017-09-05T04:26:56.446Z,16.41
2017-09-05T04:27:38.362Z,16.35
2017-09-05T04:28:20.707Z,16.3
2017-09-05T04:29:03.267Z,16.33
2017-09-05T04:29:45.288Z,16.3
2017-09-05T04:30:27.896Z,16.38
2017-09-05T04:31:10.228Z,16.39
2017-09-05T04:33:11.783Z,16.33
2017-09-05T04:33:53.947Z,16.3
2017-09-05T04:34:36.637Z,16.35
2017-09-05T04:35:18.815Z,16.33
2017-09-05T04:36:01.846Z,16.39
2017-09-05T04:36:44.597Z,16.41
2017-09-05T04:37:27.107Z,16.25
2017-09-05T04:38:09.166Z,16.24
2017-09-05T04:38:51.614Z,16.27
2017-09-05T04:40:30.896Z,16.42
2017-09-05T04:41:13.632Z,16.33
2017-09-05T04:41:56.349Z,16.43
2017-09-05T04:42:39.652Z,16.39
2017-09-05T04:43:21.350Z,16.41
2017-09-05T04:44:04.042Z,16.38
2017-09-05T04:44:46.616Z,16.42
2017-09-05T04:45:30.194Z,16.41
2017-09-05T04:46:12.806Z,16.39
2017-09-05T04:46:54.875Z,16.42
2017-09-05T04:47:37.083Z,16.34
2017-09-05T04:48:19.435Z,16.38
2017-09-05T04:49:02.117Z,16.34
2017-09-05T04:49:43.956Z,16.39
2017-09-05T04:50:25.963Z,16.35
2017-09-05T04:51:22.698Z,16.45
2017-09-05T04:52:16.977Z,16.38
2017-09-05T04:53:18.544Z,16.41
2017-09-05T04:54:30.470Z,16.45
2017-09-05T04:55:21.604Z,16.39
2017-09-05T04:57:02.286Z,16.48
2017-09-05T04:57:44.590Z,16.45
2017-09-05T04:58:27.217Z,16.38
2017-09-05T04:59:09.508Z,16.39
2017-09-05T04:59:52.419Z,16.43
2017-09-05T05:01:47.103Z,16.45
2017-09-05T05:02:27.641Z,16.42
2017-09-05T05:03:08.170Z,16.43
2017-09-05T05:03:48.706Z,16.48
2017-09-05T05:04:29.238Z,16.43
2017-09-05T05:05:09.778Z,16.41
2017-09-05T05:05:50.330Z,16.48
2017-09-05T05:06:30.842Z,16.45
2017-09-05T05:07:11.381Z,16.43
2017-09-05T05:07:51.915Z,16.45
2017-09-05T05:08:32.447Z,16.42
2017-09-05T05:09:12.985Z,16.43
2017-09-05T05:09:53.542Z,16.43
2017-09-05T05:10:34.077Z,16.42
2017-09-05T05:11:14.612Z,16.43
2017-09-05T05:11:55.157Z,16.43
2017-09-05T05:12:35.695Z,16.46
2017-09-05T05:13:16.235Z,16.43
2017-09-05T05:13:56.756Z,16.45
2017-09-05T05:14:37.288Z,16.45
2017-09-05T05:15:17.813Z,16.45
2017-09-05T05:15:58.352Z,16.45
2017-09-05T05:16:38.889Z,16.49
2017-09-05T05:17:19.424Z,16.43
2017-09-05T05:17:59.953Z,16.46
2017-09-05T05:18:40.488Z,16.43
2017-09-05T05:19:21.026Z,16.43
2017-09-05T05:20:01.555Z,16.43
2017-09-05T05:20:42.095Z,16.43
2017-09-05T05:21:22.631Z,16.42
2017-09-05T05:22:03.170Z,16.46
2017-09-05T05:22:43.717Z,16.46
2017-09-05T05:23:24.244Z,16.43
2017-09-05T05:24:04.782Z,16.45
2017-09-05T05:24:45.318Z,16.48
2017-09-05T05:25:25.851Z,16.48
2017-09-05T05:26:06.384Z,16.43
2017-09-05T05:26:46.919Z,16.48
2017-09-05T05:27:27.445Z,16.48
2017-09-05T05:28:07.977Z,16.53
2017-09-05T05:28:48.523Z,16.43
2017-09-05T05:29:29.058Z,16.56
2017-09-05T05:30:09.589Z,16.52
2017-09-05T05:30:50.129Z,16.52
2017-09-05T05:31:30.669Z,16.52
2017-09-05T05:32:11.208Z,16.56
2017-09-05T05:32:51.773Z,16.56
2017-09-05T05:33:32.309Z,16.52
2017-09-05T05:34:12.848Z,16.42
2017-09-05T05:34:53.386Z,16.46
2017-09-05T05:35:33.920Z,16.45
2017-09-05T05:36:14.456Z,16.46
2017-09-05T05:36:54.995Z,16.5
2017-09-05T05:37:35.534Z,16.52
2017-09-05T05:38:16.060Z,16.56
2017-09-05T05:38:56.598Z,16.56
2017-09-05T05:39:37.136Z,16.52
2017-09-05T05:40:17.680Z,16.57
2017-09-05T05:40:58.213Z,16.56
2017-09-05T05:41:38.753Z,16.56
2017-09-05T05:42:19.287Z,16.56
2017-09-05T05:42:59.823Z,16.58
2017-09-05T05:43:40.356Z,16.64
2017-09-05T05:44:20.896Z,16.57
2017-09-05T05:45:01.435Z,16.53
2017-09-05T05:45:41.985Z,16.6
2017-09-05T05:46:22.517Z,16.58
2017-09-05T05:47:03.095Z,16.63
2017-09-05T05:47:43.626Z,16.56
2017-09-05T05:48:24.167Z,16.68
2017-09-05T05:49:04.702Z,16.6
2017-09-05T05:49:45.248Z,16.58
2017-09-05T05:50:25.788Z,16.58
2017-09-05T05:51:06.315Z,16.64
2017-09-05T05:51:46.857Z,16.57
2017-09-05T05:52:27.454Z,16.57
2017-09-05T05:53:07.925Z,16.58
2017-09-05T05:53:48.459Z,16.66
2017-09-05T05:54:28.993Z,16.58
2017-09-05T05:55:09.526Z,16.6
2017-09-05T05:55:50.071Z,16.57
2017-09-05T05:56:30.873Z,16.63
2017-09-05T05:57:11.114Z,16.58
2017-09-05T05:57:51.653Z,16.61
2017-09-05T05:58:32.230Z,16.6
2017-09-05T05:59:12.770Z,16.52
2017-09-05T05:59:53.252Z,16.53
2017-09-05T06:00:33.791Z,16.6
2017-09-05T06:01:14.326Z,16.66
2017-09-05T06:01:54.861Z,16.67
2017-09-05T06:02:37.492Z,16.66
2017-09-05T06:03:18.032Z,16.66
2017-09-05T06:03:58.593Z,16.73
2017-09-05T06:04:39.120Z,16.66
2017-09-05T06:05:19.656Z,16.63
2017-09-05T06:06:00.195Z,16.79
2017-09-05T06:06:40.724Z,16.67
2017-09-05T06:07:21.269Z,16.66
2017-09-05T06:08:01.782Z,16.66
2017-09-05T06:08:42.315Z,16.67
2017-09-05T06:09:22.873Z,16.76
2017-09-05T06:10:03.411Z,16.76
2017-09-05T06:10:43.946Z,16.76
2017-09-05T06:11:24.477Z,16.83
2017-09-05T06:12:05.023Z,16.86
2017-09-05T06:12:45.545Z,16.79
2017-09-05T06:13:26.085Z,16.81
2017-09-05T06:14:06.620Z,16.86
2017-09-05T06:14:47.152Z,16.82
2017-09-05T06:15:27.685Z,16.88
2017-09-05T06:16:08.239Z,16.83
2017-09-05T06:16:48.749Z,16.89
2017-09-05T06:17:29.289Z,16.79
2017-09-05T06:18:09.830Z,16.86
2017-09-05T06:18:50.368Z,16.88
2017-09-05T06:19:30.904Z,16.89
2017-09-05T06:20:11.434Z,16.79
2017-09-05T06:20:51.976Z,16.83
2017-09-05T06:21:32.513Z,16.83
2017-09-05T06:22:13.045Z,16.88
2017-09-05T06:22:53.575Z,16.88
2017-09-05T06:23:34.112Z,16.97
2017-09-05T06:24:14.634Z,16.88
2017-09-05T06:24:55.223Z,16.89
2017-09-05T06:25:35.758Z,16.88
2017-09-05T06:26:16.304Z,16.98
2017-09-05T06:26:56.870Z,16.96
2017-09-05T06:27:37.357Z,16.83
2017-09-05T06:28:17.898Z,16.88
2017-09-05T06:28:58.439Z,16.86
2017-09-05T06:29:39.001Z,16.89
2017-09-05T06:30:19.538Z,16.96
2017-09-05T06:31:00.078Z,16.88
2017-09-05T06:31:40.613Z,16.89
2017-09-05T06:32:21.145Z,16.89
2017-09-05T06:33:01.676Z,16.89
2017-09-05T06:33:42.216Z,16.94
2017-09-05T06:34:22.766Z,16.97
2017-09-05T06:35:03.294Z,16.91
2017-09-05T06:35:43.834Z,16.93
2017-09-05T06:36:24.372Z,16.98
2017-09-05T06:37:04.894Z,17.01
2017-09-05T06:37:45.432Z,17.01
2017-09-05T06:38:25.978Z,17
2017-09-05T06:39:06.533Z,16.94
2017-09-05T06:39:47.043Z,16.98
2017-09-05T06:40:27.583Z,16.97
2017-09-05T06:41:08.103Z,17.03
2017-09-05T06:41:48.636Z,17.01
2017-09-05T06:42:29.171Z,17.01
2017-09-05T06:43:09.719Z,17.06
2017-09-05T06:43:50.257Z,17.06
2017-09-05T06:44:30.795Z,17.04
2017-09-05T06:45:11.364Z,17.03
2017-09-05T06:45:51.857Z,17.14
2017-09-05T06:46:32.391Z,17.14
2017-09-05T06:47:12.921Z,17.11
2017-09-05T06:47:53.458Z,17.12
2017-09-05T06:48:33.986Z,17.06
2017-09-05T06:49:14.520Z,17.08
2017-09-05T06:49:55.052Z,17.19
2017-09-05T06:50:35.588Z,17.21
2017-09-05T06:51:16.125Z,17.21
2017-09-05T06:51:56.695Z,17.22
2017-09-05T06:52:37.205Z,17.18
2017-09-05T06:53:17.734Z,17.22
2017-09-05T06:53:58.267Z,17.26
2017-09-05T06:54:38.802Z,17.3
2017-09-05T06:55:19.349Z,17.23
2017-09-05T06:55:59.885Z,17.18
2017-09-05T06:56:40.425Z,17.21
2017-09-05T06:57:20.960Z,17.23
2017-09-05T06:58:01.500Z,17.28
2017-09-05T06:58:42.037Z,17.26
2017-09-05T06:59:22.575Z,17.36
2017-09-05T07:00:03.110Z,17.28
2017-09-05T07:00:43.647Z,17.26
2017-09-05T07:01:24.180Z,17.33
2017-09-05T07:02:04.719Z,17.4
2017-09-05T07:02:45.242Z,17.37
2017-09-05T07:03:25.773Z,17.43
2017-09-05T07:04:06.310Z,17.4
2017-09-05T07:04:46.876Z,17.38
2017-09-05T07:05:27.411Z,17.43
2017-09-05T07:06:07.959Z,17.41
2017-09-05T07:06:48.489Z,17.48
2017-09-05T07:07:29.019Z,17.48
2017-09-05T07:08:09.557Z,17.48
2017-09-05T07:08:50.093Z,17.49
2017-09-05T07:09:30.629Z,17.54
2017-09-05T07:10:11.170Z,17.59
2017-09-05T07:10:51.718Z,17.58
2017-09-05T07:11:32.245Z,17.62
2017-09-05T07:12:12.785Z,17.68
2017-09-05T07:12:53.322Z,17.68
2017-09-05T07:13:33.836Z,17.72
2017-09-05T07:14:14.400Z,17.75
2017-09-05T07:14:54.936Z,17.78
2017-09-05T07:15:35.475Z,17.79
2017-09-05T07:16:16.026Z,17.77
2017-09-05T07:16:56.551Z,17.75
2017-09-05T07:17:37.093Z,17.78
2017-09-05T07:18:17.629Z,17.81
2017-09-05T07:18:58.170Z,17.9
2017-09-05T07:19:38.694Z,17.92
2017-09-05T07:20:19.232Z,17.92
2017-09-05T07:20:59.766Z,17.96
2017-09-05T07:21:40.318Z,17.97
2017-09-05T07:22:20.886Z,17.9
2017-09-05T07:23:01.396Z,17.9
2017-09-05T07:23:41.933Z,17.92
2017-09-05T07:24:22.471Z,18
2017-09-05T07:25:03.020Z,18.02
2017-09-05T07:25:43.533Z,18.08
2017-09-05T07:26:24.077Z,18.03
2017-09-05T07:27:04.617Z,18.05
2017-09-05T07:27:45.141Z,18.08
2017-09-05T07:28:25.680Z,18.03
2017-09-05T07:29:06.254Z,18.05
2017-09-05T07:29:46.753Z,18.07
2017-09-05T07:30:27.299Z,18.08
2017-09-05T07:31:07.835Z,18.08
2017-09-05T07:31:48.390Z,18.11
2017-09-05T07:32:28.954Z,18.1
2017-09-05T07:33:09.492Z,18.1
2017-09-05T07:33:50.033Z,18.05
2017-09-05T07:34:30.558Z,18.14
2017-09-05T07:35:11.086Z,18.15
2017-09-05T07:35:51.621Z,18.1
2017-09-05T07:36:32.158Z,18.14
2017-09-05T07:37:12.685Z,18.17
2017-09-05T07:37:53.229Z,18.23
2017-09-05T07:38:33.781Z,18.18
2017-09-05T07:39:14.303Z,18.17
2017-09-05T07:39:54.843Z,18.23
2017-09-05T07:40:35.382Z,18.29
2017-09-05T07:41:15.911Z,18.26
2017-09-05T07:41:56.444Z,18.25
2017-09-05T07:42:36.998Z,18.35
2017-09-05T07:43:17.522Z,18.37
2017-09-05T07:43:58.057Z,18.32
2017-09-05T07:44:38.593Z,18.36
2017-09-05T07:45:19.134Z,18.42
2017-09-05T07:45:59.675Z,18.36
2017-09-05T07:46:40.189Z,18.35
2017-09-05T07:47:20.730Z,18.44
2017-09-05T07:48:01.269Z,18.45
2017-09-05T07:48:41.811Z,18.55
2017-09-05T07:49:22.347Z,18.5
2017-09-05T07:50:02.880Z,18.54
2017-09-05T07:50:43.415Z,18.52
2017-09-05T07:51:23.951Z,18.55
2017-09-05T07:52:04.483Z,18.42
2017-09-05T07:52:45.026Z,18.48
2017-09-05T07:53:25.559Z,18.41
2017-09-05T07:54:06.093Z,18.42
2017-09-05T07:54:46.630Z,18.5
2017-09-05T07:55:27.169Z,18.48
2017-09-05T07:56:07.713Z,18.48
2017-09-05T07:56:48.259Z,18.48
2017-09-05T07:57:28.790Z,18.5
2017-09-05T07:58:09.332Z,18.5
2017-09-05T07:58:50.042Z,18.51
2017-09-05T07:59:30.575Z,18.54
2017-09-05T08:00:11.115Z,18.54
2017-09-05T08:00:51.664Z,18.6
2017-09-05T08:01:32.193Z,18.55
2017-09-05T08:02:12.733Z,18.51
2017-09-05T08:02:53.269Z,18.52
2017-09-05T08:03:33.813Z,18.52
2017-09-05T08:04:14.349Z,18.52
2017-09-05T08:04:54.901Z,18.52
2017-09-05T08:05:35.437Z,18.54
2017-09-05T08:06:15.987Z,18.62
2017-09-05T08:06:56.525Z,18.6
2017-09-05T08:07:37.074Z,18.57
2017-09-05T08:08:17.604Z,18.62
2017-09-05T08:08:58.144Z,18.67
2017-09-05T08:09:38.679Z,18.67
2017-09-05T08:10:19.221Z,18.62
2017-09-05T08:10:59.771Z,18.66
2017-09-05T08:11:40.336Z,18.67
2017-09-05T08:12:20.863Z,18.67
2017-09-05T08:13:01.385Z,18.69
2017-09-05T08:13:41.924Z,18.75
2017-09-05T08:14:22.466Z,18.73
2017-09-05T08:15:03.003Z,18.82
2017-09-05T08:15:43.549Z,18.81
2017-09-05T08:16:24.088Z,18.81
2017-09-05T08:17:04.630Z,18.81
2017-09-05T08:17:45.180Z,18.76
2017-09-05T08:18:25.729Z,18.81
2017-09-05T08:19:06.273Z,18.87
2017-09-05T08:19:46.795Z,18.85
2017-09-05T08:20:27.334Z,18.91
2017-09-05T08:21:07.897Z,18.91
2017-09-05T08:21:48.442Z,18.91
2017-09-05T08:22:28.985Z,18.99
2017-09-05T08:23:09.517Z,18.95
2017-09-05T08:23:50.057Z,19
2017-09-05T08:24:30.596Z,19.04
2017-09-05T08:25:11.141Z,19.06
2017-09-05T08:25:51.682Z,19.13
2017-09-05T08:26:32.212Z,19.07
2017-09-05T08:27:12.849Z,19.11
2017-09-05T08:27:53.405Z,19.19
2017-09-05T08:28:33.925Z,19.26
2017-09-05T08:29:14.471Z,19.26
2017-09-05T08:29:55.003Z,19.25
2017-09-05T08:30:35.547Z,19.25
2017-09-05T08:31:16.104Z,19.32
2017-09-05T08:31:56.646Z,19.37
2017-09-05T08:32:37.185Z,19.29
2017-09-05T08:33:17.710Z,19.37
2017-09-05T08:33:58.251Z,19.4
2017-09-05T08:34:38.799Z,19.51
2017-09-05T08:35:19.335Z,19.54
2017-09-05T08:35:59.862Z,19.5
2017-09-05T08:36:40.406Z,19.59
2017-09-05T08:37:20.949Z,19.55
2017-09-05T08:38:01.507Z,19.55
2017-09-05T08:38:42.024Z,19.59
2017-09-05T08:39:22.586Z,19.61
2017-09-05T08:40:03.128Z,19.62
2017-09-05T08:40:43.703Z,19.58
2017-09-05T08:41:24.215Z,19.51
2017-09-05T08:42:04.760Z,19.61
2017-09-05T08:42:45.270Z,19.54
2017-09-05T08:43:25.812Z,19.56
2017-09-05T08:44:06.354Z,19.62
2017-09-05T08:44:46.878Z,19.59
2017-09-05T08:45:27.421Z,19.58
2017-09-05T08:46:07.953Z,19.55
2017-09-05T08:46:48.493Z,19.58
2017-09-05T08:47:29.035Z,19.62
2017-09-05T08:48:09.571Z,19.65
2017-09-05T08:48:50.103Z,19.65
2017-09-05T08:49:30.638Z,19.68
2017-09-05T08:50:11.174Z,19.69
2017-09-05T08:50:51.714Z,19.77
2017-09-05T08:51:32.263Z,19.76
2017-09-05T08:52:12.806Z,19.77
2017-09-05T08:52:53.368Z,19.78
2017-09-05T08:53:33.892Z,19.87
2017-09-05T08:54:14.444Z,19.91
2017-09-05T08:54:54.991Z,19.91
2017-09-05T08:55:35.533Z,19.81
2017-09-05T08:56:16.066Z,19.98
2017-09-05T08:56:56.609Z,19.99
2017-09-05T08:57:37.149Z,20.01
2017-09-05T08:58:17.685Z,20.08
2017-09-05T08:58:58.218Z,20.1